createdAt,value
2022-12-04T00:02:11.133Z,101578.66
2022-12-04T00:04:37.750Z,101587.22
2022-12-04T00:07:04.790Z,101574.25
2022-12-04T00:09:31.203Z,101573.91
2022-12-04T00:11:58.660Z,101568.16
2022-12-04T00:14:25.080Z,101565.84
2022-12-04T00:16:51.643Z,101562.72
2022-12-04T00:19:18.255Z,101558.25
2022-12-04T00:21:45.243Z,101558.38
2022-12-04T00:24:12.547Z,101565.03
2022-12-04T00:26:39.060Z,101563.81
2022-12-04T00:29:05.686Z,101565.25
2022-12-04T00:31:32.445Z,101563.59
2022-12-04T00:34:00.359Z,101564.66
2022-12-04T00:36:29.011Z,101567.63
2022-12-04T00:38:56.415Z,101565.84
2022-12-04T00:41:25.034Z,101563.00
2022-12-04T00:43:52.510Z,101562.25
2022-12-04T00:46:19.487Z,101561.81
2022-12-04T00:48:46.344Z,101556.72
2022-12-04T00:51:21.024Z,101561.28
2022-12-04T00:53:48.002Z,101557.09
2022-12-04T00:56:18.684Z,101564.13
2022-12-04T00:58:45.774Z,101557.44
2022-12-04T01:01:18.403Z,101555.13
2022-12-04T01:03:45.370Z,101554.06
2022-12-04T01:06:25.375Z,101548.31
2022-12-04T01:08:54.395Z,101551.63
2022-12-04T01:11:22.621Z,101557.50
2022-12-04T01:13:49.414Z,101545.94
2022-12-04T01:16:17.937Z,101548.03
2022-12-04T01:18:44.861Z,101553.09
2022-12-04T01:21:12.148Z,101553.53
2022-12-04T01:23:38.728Z,101549.47
2022-12-04T01:26:05.733Z,101552.78
2022-12-04T01:28:32.479Z,101551.84
2022-12-04T01:31:06.206Z,101547.94
2022-12-04T01:33:35.043Z,101549.78
2022-12-04T01:36:05.956Z,101548.78
2022-12-04T01:38:33.656Z,101554.28
2022-12-04T01:41:00.331Z,101548.94
2022-12-04T01:43:28.798Z,101549.84
2022-12-04T01:45:57.005Z,101547.56
2022-12-04T01:48:52.715Z,101544.25
2022-12-04T01:51:25.182Z,101543.44
2022-12-04T01:53:55.941Z,101534.69
2022-12-04T01:56:27.502Z,101541.25
2022-12-04T01:58:58.871Z,101551.09
2022-12-04T02:01:29.158Z,101540.59
2022-12-04T02:03:55.904Z,101544.09
2022-12-04T02:06:22.418Z,101536.66
2022-12-04T02:08:48.855Z,101544.31
2022-12-04T02:11:45.397Z,101550.13
2022-12-04T02:14:46.451Z,101543.16
2022-12-04T02:17:19.130Z,101538.03
2022-12-04T02:20:04.661Z,101543.16
2022-12-04T02:22:45.412Z,101530.63
2022-12-04T02:25:52.023Z,101541.66
2022-12-04T02:28:46.311Z,101531.22
2022-12-04T02:31:19.250Z,101529.13
2022-12-04T02:33:54.084Z,101525.63
2022-12-04T02:36:28.649Z,101525.81
2022-12-04T02:39:10.719Z,101514.25
2022-12-04T02:41:46.989Z,101518.63
2022-12-04T02:44:23.789Z,101528.59
2022-12-04T02:46:57.164Z,101518.94
2022-12-04T02:49:37.664Z,101525.63
2022-12-04T02:52:10.054Z,101519.13
2022-12-04T02:54:41.346Z,101514.16
2022-12-04T02:57:13.906Z,101512.19
2022-12-04T02:59:45.395Z,101509.81
2022-12-04T03:02:23.433Z,101514.97
2022-12-04T03:04:51.917Z,101509.28
2022-12-04T03:07:26.038Z,101506.91
2022-12-04T03:09:59.409Z,101501.44
2022-12-04T03:12:50.243Z,101509.97
2022-12-04T03:15:23.330Z,101513.28
2022-12-04T03:18:01.855Z,101510.44
2022-12-04T03:20:32.479Z,101523.56
2022-12-04T03:23:09.674Z,101522.91
2022-12-04T03:25:47.436Z,101513.72
2022-12-04T03:28:32.380Z,101509.56
2022-12-04T03:31:05.744Z,101521.78
2022-12-04T03:33:41.845Z,101510.28
2022-12-04T03:36:18.444Z,101509.75
2022-12-04T03:38:54.364Z,101513.06
2022-12-04T03:41:27.033Z,101507.00
2022-12-04T03:44:13.124Z,101519.47
2022-12-04T03:46:54.818Z,101513.72
2022-12-04T03:49:31.734Z,101512.22
2022-12-04T03:52:16.947Z,101509.50
2022-12-04T03:54:53.695Z,101506.72
2022-12-04T03:57:27.352Z,101502.84
2022-12-04T04:00:08.754Z,101516.00
2022-12-04T04:02:39.690Z,101500.19
2022-12-04T04:05:09.851Z,101506.59
2022-12-04T04:08:18.589Z,101508.28
2022-12-04T04:10:45.579Z,101500.97
2022-12-04T04:13:35.538Z,101497.31
2022-12-04T04:16:24.404Z,101501.03
2022-12-04T04:19:11.816Z,101511.25
2022-12-04T04:22:07.919Z,101504.34
2022-12-04T04:24:34.695Z,101502.97
2022-12-04T04:27:01.760Z,101501.59
2022-12-04T04:29:28.388Z,101502.50
2022-12-04T04:32:03.594Z,101502.31
2022-12-04T04:34:57.875Z,101512.09
2022-12-04T04:37:30.607Z,101514.13
2022-12-04T04:40:05.834Z,101511.28
2022-12-04T04:42:48.651Z,101510.44
2022-12-04T04:45:25.613Z,101512.09
2022-12-04T04:48:00.779Z,101511.16
2022-12-04T04:50:28.919Z,101503.56
2022-12-04T04:53:01.312Z,101504.22
2022-12-04T04:55:28.991Z,101510.38
2022-12-04T04:58:07.050Z,101521.63
2022-12-04T05:00:33.691Z,101508.84
2022-12-04T05:03:00.243Z,101515.34
2022-12-04T05:05:26.747Z,101518.09
2022-12-04T05:07:53.272Z,101520.88
2022-12-04T05:10:19.753Z,101521.88
2022-12-04T05:12:46.230Z,101519.31
2022-12-04T05:15:12.692Z,101521.16
2022-12-04T05:17:39.131Z,101525.75
2022-12-04T05:20:06.436Z,101520.69
2022-12-04T05:22:34.957Z,101509.84
2022-12-04T05:25:02.705Z,101524.06
2022-12-04T05:27:30.276Z,101514.47
2022-12-04T05:29:58.380Z,101517.03
2022-12-04T05:32:27.431Z,101521.34
2022-12-04T05:34:55.518Z,101516.28
2022-12-04T05:37:23.042Z,101515.00
2022-12-04T05:39:49.546Z,101517.66
2022-12-04T05:42:16.062Z,101520.50
2022-12-04T05:44:42.671Z,101517.78
2022-12-04T05:47:09.268Z,101512.06
2022-12-04T05:49:36.115Z,101521.91
2022-12-04T05:52:04.787Z,101512.25
2022-12-04T05:54:31.766Z,101518.94
2022-12-04T05:56:58.399Z,101521.34
2022-12-04T05:59:24.828Z,101514.91
2022-12-04T06:01:51.372Z,101512.97
2022-12-04T06:04:17.822Z,101511.59
2022-12-04T06:06:44.331Z,101512.88
2022-12-04T06:09:11.929Z,101512.59
2022-12-04T06:11:39.888Z,101518.78
2022-12-04T06:14:08.803Z,101517.13
2022-12-04T06:16:38.091Z,101521.44
2022-12-04T06:19:11.289Z,101514.06
2022-12-04T06:21:40.351Z,101516.09
2022-12-04T06:24:07.790Z,101518.88
2022-12-04T06:26:34.733Z,101516.84
2022-12-04T06:29:02.325Z,101517.78
2022-12-04T06:31:29.848Z,101519.91
2022-12-04T06:33:57.699Z,101528.38
2022-12-04T06:36:24.993Z,101531.75
2022-12-04T06:38:54.311Z,101532.22
2022-12-04T06:41:21.681Z,101525.53
2022-12-04T06:43:48.830Z,101536.31
2022-12-04T06:46:18.783Z,101532.06
2022-12-04T06:48:45.466Z,101534.91
2022-12-04T06:51:15.016Z,101539.69
2022-12-04T06:53:42.523Z,101536.13
2022-12-04T06:56:12.816Z,101545.41
2022-12-04T06:58:39.222Z,101538.78
2022-12-04T07:01:08.101Z,101546.72
2022-12-04T07:03:34.864Z,101543.03
2022-12-04T07:06:16.566Z,101544.75
2022-12-04T07:08:45.079Z,101542.38
2022-12-04T07:11:12.439Z,101538.13
2022-12-04T07:13:39.779Z,101538.06
2022-12-04T07:16:08.187Z,101534.09
2022-12-04T07:18:36.294Z,101536.97
2022-12-04T07:21:12.091Z,101533.47
2022-12-04T07:23:38.644Z,101534.56
2022-12-04T07:26:10.232Z,101540.72
2022-12-04T07:28:37.682Z,101541.47
2022-12-04T07:31:09.302Z,101535.00
2022-12-04T07:33:36.499Z,101535.00
2022-12-04T07:36:05.284Z,101528.31
2022-12-04T07:38:32.857Z,101533.53
2022-12-04T07:41:00.021Z,101532.06
2022-12-04T07:43:29.912Z,101542.31
2022-12-04T07:45:59.093Z,101533.00
2022-12-04T07:48:30.181Z,101543.88
2022-12-04T07:51:07.219Z,101540.34
2022-12-04T07:53:34.854Z,101536.97
2022-12-04T07:56:02.981Z,101535.38
2022-12-04T07:58:29.494Z,101538.06
2022-12-04T08:00:56.124Z,101542.69
2022-12-04T08:03:22.627Z,101537.13
2022-12-04T08:05:49.102Z,101535.09
2022-12-04T08:08:15.545Z,101532.06
2022-12-04T08:10:42.112Z,101536.41
2022-12-04T08:13:08.625Z,101534.22
2022-12-04T08:15:35.346Z,101528.78
2022-12-04T08:18:01.773Z,101527.75
2022-12-04T08:20:28.283Z,101538.72
2022-12-04T08:22:54.818Z,101531.81
2022-12-04T08:25:21.274Z,101525.34
2022-12-04T08:27:47.987Z,101539.84
2022-12-04T08:30:14.554Z,101541.50
2022-12-04T08:32:41.105Z,101542.69
2022-12-04T08:35:08.070Z,101539.19
2022-12-04T08:37:35.039Z,101532.56
2022-12-04T08:40:02.904Z,101540.56
2022-12-04T08:42:29.375Z,101531.00
2022-12-04T08:44:55.825Z,101533.47
2022-12-04T08:47:22.396Z,101538.34
2022-12-04T08:49:48.874Z,101531.38
2022-12-04T08:52:15.421Z,101518.56
2022-12-04T08:54:41.871Z,101532.00
2022-12-04T08:57:08.387Z,101533.56
2022-12-04T08:59:35.271Z,101527.31
2022-12-04T09:02:01.815Z,101530.16
2022-12-04T09:04:28.458Z,101532.00
2022-12-04T09:06:54.975Z,101535.69
2022-12-04T09:09:21.483Z,101531.94
2022-12-04T09:11:48.478Z,101538.53
2022-12-04T09:14:14.959Z,101535.97
2022-12-04T09:16:41.666Z,101534.78
2022-12-04T09:19:08.179Z,101535.69
2022-12-04T09:21:34.797Z,101536.25
2022-12-04T09:24:01.865Z,101537.44
2022-12-04T09:26:31.098Z,101530.34
2022-12-04T09:28:59.696Z,101537.81
2022-12-04T09:31:26.614Z,101533.78
2022-12-04T09:33:53.791Z,101534.59
2022-12-04T09:36:20.877Z,101534.69
2022-12-04T09:38:52.808Z,101529.72
2022-12-04T09:41:38.091Z,101538.72
2022-12-04T09:44:32.432Z,101537.00
2022-12-04T09:47:00.535Z,101545.09
2022-12-04T09:49:48.662Z,101546.00
2022-12-04T09:52:40.215Z,101541.13
2022-12-04T09:55:14.124Z,101542.63
2022-12-04T09:57:49.974Z,101542.25
2022-12-04T10:00:19.717Z,101537.09
2022-12-04T10:03:04.110Z,101537.72
2022-12-04T10:05:55.263Z,101535.31
2022-12-04T10:08:37.864Z,101530.16
2022-12-04T10:11:24.683Z,101532.75
2022-12-04T10:14:31.902Z,101532.84
2022-12-04T10:17:32.529Z,101527.56
2022-12-04T10:20:33.231Z,101528.13
2022-12-04T10:23:14.414Z,101516.25
2022-12-04T10:25:42.802Z,101522.88
2022-12-04T10:28:23.679Z,101507.50
2022-12-04T10:30:52.826Z,101519.94
2022-12-04T10:33:37.899Z,101507.69
2022-12-04T10:36:06.181Z,101507.22
2022-12-04T10:38:39.116Z,101509.22
2022-12-04T10:41:17.906Z,101511.00
2022-12-04T10:43:46.808Z,101511.09
2022-12-04T10:46:18.210Z,101510.63
2022-12-04T10:48:48.567Z,101509.41
2022-12-04T10:51:21.387Z,101511.72
2022-12-04T10:53:49.384Z,101510.44
2022-12-04T10:56:24.279Z,101512.94
2022-12-04T10:59:05.665Z,101515.34
2022-12-04T11:01:34.338Z,101511.00
2022-12-04T11:04:09.179Z,101525.63
2022-12-04T11:06:35.973Z,101516.88
2022-12-04T11:09:04.248Z,101517.06
2022-12-04T11:11:34.158Z,101516.16
2022-12-04T11:14:07.294Z,101511.44
2022-12-04T11:16:48.175Z,101508.94
2022-12-04T11:19:26.039Z,101508.31
2022-12-04T11:21:58.753Z,101500.66
2022-12-04T11:24:25.147Z,101502.88
2022-12-04T11:26:52.391Z,101491.63
2022-12-04T11:29:21.914Z,101491.72
2022-12-04T11:31:54.760Z,101492.00
2022-12-04T11:34:25.011Z,101489.03
2022-12-04T11:36:57.527Z,101490.59
2022-12-04T11:39:35.913Z,101489.41
2022-12-04T11:42:12.570Z,101479.47
2022-12-04T11:44:40.389Z,101479.91
2022-12-04T11:47:17.410Z,101476.03
2022-12-04T11:49:44.108Z,101469.28
2022-12-04T11:52:35.010Z,101469.56
2022-12-04T11:55:09.155Z,101471.22
2022-12-04T11:58:13.093Z,101465.25
2022-12-04T12:00:51.363Z,101465.25
2022-12-04T12:03:26.394Z,101458.72
2022-12-04T12:06:27.182Z,101466.16
2022-12-04T12:08:53.566Z,101475.56
2022-12-04T12:11:27.204Z,101467.38
2022-12-04T12:14:14.274Z,101460.53
2022-12-04T12:16:49.976Z,101461.09
2022-12-04T12:19:39.702Z,101466.97
2022-12-04T12:22:26.560Z,101466.50
2022-12-04T12:25:17.011Z,101467.16
2022-12-04T12:28:15.168Z,101459.06
2022-12-04T12:31:19.710Z,101464.38
2022-12-04T12:33:51.863Z,101469.63
2022-12-04T12:36:21.710Z,101463.63
2022-12-04T12:38:56.791Z,101464.38
2022-12-04T12:41:34.699Z,101463.09
2022-12-04T12:44:06.042Z,101459.91
2022-12-04T12:46:48.804Z,101455.81
2022-12-04T12:49:15.291Z,101455.38
2022-12-04T12:51:58.333Z,101450.47
2022-12-04T12:54:53.256Z,101455.63
2022-12-04T12:57:33.400Z,101438.22
2022-12-04T13:00:22.251Z,101429.94
2022-12-04T13:02:58.168Z,101431.81
2022-12-04T13:05:33.733Z,101433.03
2022-12-04T13:08:21.664Z,101436.63
2022-12-04T13:11:02.151Z,101428.88
2022-12-04T13:13:34.328Z,101426.66
2022-12-04T13:16:11.187Z,101423.25
2022-12-04T13:18:46.108Z,101426.66
2022-12-04T13:21:26.331Z,101427.28
2022-12-04T13:24:23.807Z,101426.03
2022-12-04T13:27:03.894Z,101425.09
2022-12-04T13:29:39.459Z,101420.13
2022-12-04T13:32:27.794Z,101414.22
2022-12-04T13:35:13.219Z,101424.75
2022-12-04T13:38:05.069Z,101418.00
2022-12-04T13:40:44.943Z,101426.03
2022-12-04T13:43:14.182Z,101419.69
2022-12-04T13:45:41.388Z,101415.97
2022-12-04T13:48:09.878Z,101414.59
2022-12-04T13:50:39.406Z,101412.03
2022-12-04T13:53:06.888Z,101415.53
2022-12-04T13:55:36.611Z,101411.53
2022-12-04T13:58:12.007Z,101410.06
2022-12-04T14:00:44.060Z,101393.44
2022-12-04T14:03:30.283Z,101394.06
2022-12-04T14:05:56.932Z,101391.53
2022-12-04T14:08:25.906Z,101389.91
2022-12-04T14:11:04.059Z,101388.34
2022-12-04T14:13:42.399Z,101386.09
2022-12-04T14:16:29.903Z,101383.31
2022-12-04T14:18:59.254Z,101376.75
2022-12-04T14:21:26.519Z,101380.81
2022-12-04T14:23:53.470Z,101376.09
2022-12-04T14:26:48.894Z,101370.81
2022-12-04T14:29:39.432Z,101370.94
2022-12-04T14:32:13.603Z,101368.28
2022-12-04T14:34:40.653Z,101373.00
2022-12-04T14:37:17.453Z,101366.25
2022-12-04T14:39:48.217Z,101368.75
2022-12-04T14:42:21.844Z,101371.00
2022-12-04T14:45:00.848Z,101379.81
2022-12-04T14:47:55.340Z,101369.94
2022-12-04T14:50:41.993Z,101377.84
2022-12-04T14:53:26.546Z,101383.56
2022-12-04T14:56:17.127Z,101380.25
2022-12-04T14:58:44.147Z,101371.84
2022-12-04T15:01:28.310Z,101377.22
2022-12-04T15:03:59.087Z,101384.69
2022-12-04T15:06:28.182Z,101383.44
2022-12-04T15:09:17.263Z,101385.78
2022-12-04T15:12:09.670Z,101379.69
2022-12-04T15:14:44.997Z,101373.06
2022-12-04T15:17:12.910Z,101378.66
2022-12-04T15:19:40.075Z,101378.53
2022-12-04T15:22:28.640Z,101375.03
2022-12-04T15:24:55.949Z,101376.47
2022-12-04T15:27:30.534Z,101385.66
2022-12-04T15:30:00.302Z,101381.63
2022-12-04T15:32:28.804Z,101381.00
2022-12-04T15:35:00.854Z,101376.47
2022-12-04T15:37:31.040Z,101377.56
2022-12-04T15:39:58.413Z,101384.13
2022-12-04T15:42:29.973Z,101381.50
2022-12-04T15:45:08.624Z,101388.84
2022-12-04T15:47:53.619Z,101389.28
2022-12-04T15:50:19.991Z,101392.16
2022-12-04T15:52:53.587Z,101389.03
2022-12-04T15:55:22.392Z,101397.88
2022-12-04T15:57:59.725Z,101390.66
2022-12-04T16:00:28.448Z,101402.28
2022-12-04T16:02:56.110Z,101397.88
2022-12-04T16:05:22.482Z,101394.81
2022-12-04T16:07:57.741Z,101395.53
2022-12-04T16:10:30.585Z,101400.13
2022-12-04T16:12:59.459Z,101402.22
2022-12-04T16:15:36.135Z,101394.56
2022-12-04T16:18:05.992Z,101394.56
2022-12-04T16:20:38.106Z,101394.69
2022-12-04T16:23:05.460Z,101392.66
2022-12-04T16:25:32.315Z,101404.41
2022-12-04T16:27:59.994Z,101405.09
2022-12-04T16:30:28.335Z,101405.03
2022-12-04T16:32:54.796Z,101414.00
2022-12-04T16:35:21.474Z,101407.94
2022-12-04T16:37:48.010Z,101414.00
2022-12-04T16:40:15.418Z,101410.13
2022-12-04T16:42:43.774Z,101414.47
2022-12-04T16:45:24.924Z,101414.19
2022-12-04T16:47:51.791Z,101418.84
2022-12-04T16:50:18.551Z,101411.44
2022-12-04T16:52:45.068Z,101418.28
2022-12-04T16:55:40.906Z,101424.88
2022-12-04T16:58:08.243Z,101428.59
2022-12-04T17:00:36.423Z,101436.94
2022-12-04T17:03:04.432Z,101442.22
2022-12-04T17:05:33.430Z,101442.75
2022-12-04T17:08:00.557Z,101448.34
2022-12-04T17:10:27.444Z,101440.56
2022-12-04T17:12:54.568Z,101436.25
2022-12-04T17:15:21.526Z,101434.31
2022-12-04T17:17:48.406Z,101435.09
2022-12-04T17:20:17.156Z,101440.88
2022-12-04T17:22:43.696Z,101433.50
2022-12-04T17:25:11.232Z,101432.53
2022-12-04T17:27:38.448Z,101427.00
2022-12-04T17:30:06.730Z,101431.03
2022-12-04T17:32:34.922Z,101431.78
2022-12-04T17:35:03.600Z,101433.94
2022-12-04T17:37:32.380Z,101437.13
2022-12-04T17:39:58.933Z,101437.13
2022-12-04T17:42:25.695Z,101436.50
2022-12-04T17:44:52.175Z,101442.91
2022-12-04T17:47:18.636Z,101451.91
2022-12-04T17:49:45.073Z,101441.66
2022-12-04T17:52:11.502Z,101441.84
2022-12-04T17:54:38.111Z,101442.34
2022-12-04T17:57:05.103Z,101435.03
2022-12-04T17:59:31.680Z,101438.50
2022-12-04T18:01:58.112Z,101439.16
2022-12-04T18:04:25.000Z,101438.19
2022-12-04T18:06:52.599Z,101435.13
2022-12-04T18:09:19.351Z,101442.66
2022-12-04T18:11:47.831Z,101435.75
2022-12-04T18:14:17.523Z,101445.78
2022-12-04T18:16:53.262Z,101438.38
2022-12-04T18:19:22.207Z,101440.63
2022-12-04T18:21:49.463Z,101437.44
2022-12-04T18:24:16.796Z,101439.41
2022-12-04T18:26:45.518Z,101438.25
2022-12-04T18:29:15.406Z,101434.94
2022-12-04T18:31:42.262Z,101425.78
2022-12-04T18:34:08.885Z,101428.38
2022-12-04T18:36:39.253Z,101427.38
2022-12-04T18:39:11.354Z,101424.63
2022-12-04T18:41:38.037Z,101421.88
2022-12-04T18:44:05.636Z,101420.44
2022-12-04T18:46:33.033Z,101424.81
2022-12-04T18:49:00.159Z,101421.41
2022-12-04T18:51:31.554Z,101423.84
2022-12-04T18:54:00.739Z,101425.91
2022-12-04T18:56:29.243Z,101415.38
2022-12-04T18:59:00.831Z,101423.22
2022-12-04T19:01:28.638Z,101422.19
2022-12-04T19:03:58.696Z,101425.94
2022-12-04T19:06:32.454Z,101422.84
2022-12-04T19:09:00.722Z,101422.56
2022-12-04T19:11:28.786Z,101422.72
2022-12-04T19:13:55.611Z,101431.88
2022-12-04T19:16:22.377Z,101433.53
2022-12-04T19:18:48.915Z,101439.09
2022-12-04T19:21:16.386Z,101436.59
2022-12-04T19:23:48.344Z,101421.13
2022-12-04T19:26:14.791Z,101423.28
2022-12-04T19:28:41.246Z,101419.97
2022-12-04T19:31:14.977Z,101420.53
2022-12-04T19:33:41.601Z,101422.78
2022-12-04T19:36:08.512Z,101414.75
2022-12-04T19:38:35.490Z,101414.19
2022-12-04T19:41:12.622Z,101423.09
2022-12-04T19:43:41.601Z,101410.47
2022-12-04T19:46:10.225Z,101414.44
2022-12-04T19:48:39.968Z,101412.56
2022-12-04T19:51:12.239Z,101404.28
2022-12-04T19:53:41.052Z,101401.41
2022-12-04T19:56:15.005Z,101409.44
2022-12-04T19:58:42.477Z,101418.19
2022-12-04T20:01:12.951Z,101423.22
2022-12-04T20:03:39.941Z,101421.41
2022-12-04T20:06:09.825Z,101427.16
2022-12-04T20:08:38.077Z,101430.25
2022-12-04T20:11:07.791Z,101422.94
2022-12-04T20:13:38.921Z,101426.63
2022-12-04T20:16:11.477Z,101418.97
2022-12-04T20:18:39.892Z,101430.06
2022-12-04T20:21:11.133Z,101430.50
2022-12-04T20:23:39.233Z,101427.81
2022-12-04T20:26:07.900Z,101422.28
2022-12-04T20:28:34.699Z,101419.50
2022-12-04T20:31:02.256Z,101429.31
2022-12-04T20:33:28.708Z,101424.97
2022-12-04T20:35:55.465Z,101414.34
2022-12-04T20:38:21.934Z,101419.75
2022-12-04T20:40:48.381Z,101416.97
2022-12-04T20:43:14.836Z,101421.91
2022-12-04T20:45:41.467Z,101414.47
2022-12-04T20:48:08.468Z,101423.31
2022-12-04T20:50:36.142Z,101426.75
2022-12-04T20:53:07.609Z,101425.34
2022-12-04T20:55:34.172Z,101424.28
2022-12-04T20:58:00.639Z,101419.13
2022-12-04T21:00:28.635Z,101422.66
2022-12-04T21:02:55.125Z,101421.41
2022-12-04T21:05:21.938Z,101416.34
2022-12-04T21:07:48.393Z,101412.84
2022-12-04T21:10:15.007Z,101416.34
2022-12-04T21:13:00.238Z,101410.56
2022-12-04T21:15:48.230Z,101403.38
2022-12-04T21:18:14.747Z,101402.75
2022-12-04T21:20:41.224Z,101407.00
2022-12-04T21:23:07.836Z,101410.13
2022-12-04T21:25:34.234Z,101405.16
2022-12-04T21:28:03.003Z,101390.22
2022-12-04T21:30:29.524Z,101397.22
2022-12-04T21:32:55.991Z,101395.31
2022-12-04T21:35:22.452Z,101386.59
2022-12-04T21:37:48.866Z,101391.63
2022-12-04T21:40:15.446Z,101390.19
2022-12-04T21:42:43.780Z,101386.31
2022-12-04T21:45:10.607Z,101384.34
2022-12-04T21:47:37.500Z,101389.91
2022-12-04T21:50:05.552Z,101383.44
2022-12-04T21:52:32.456Z,101378.66
2022-12-04T21:54:58.927Z,101371.59
2022-12-04T21:57:27.423Z,101367.66
2022-12-04T21:59:54.004Z,101370.63
2022-12-04T22:02:21.182Z,101373.06
2022-12-04T22:04:47.807Z,101376.59
2022-12-04T22:07:14.290Z,101369.56
2022-12-04T22:09:42.404Z,101373.72
2022-12-04T22:12:33.195Z,101374.34
2022-12-04T22:14:56.082Z,101376.56
2022-12-04T22:17:22.535Z,101371.06
2022-12-04T22:19:48.991Z,101373.66
2022-12-04T22:22:15.440Z,101378.66
2022-12-04T22:24:42.079Z,101374.53
2022-12-04T22:27:14.741Z,101374.72
2022-12-04T22:30:02.133Z,101390.16
2022-12-04T22:32:27.924Z,101381.97
2022-12-04T22:34:54.372Z,101376.41
2022-12-04T22:37:20.788Z,101377.91
2022-12-04T22:39:47.329Z,101380.31
2022-12-04T22:42:13.794Z,101386.34
2022-12-04T22:44:40.239Z,101386.09
2022-12-04T22:47:06.950Z,101386.69
2022-12-04T22:49:33.564Z,101384.00
2022-12-04T22:52:00.021Z,101380.16
2022-12-04T22:54:27.907Z,101383.50
2022-12-04T22:56:54.407Z,101382.22
2022-12-04T22:59:20.877Z,101373.72
2022-12-04T23:01:47.295Z,101370.66
2022-12-04T23:04:13.730Z,101371.25
2022-12-04T23:06:40.213Z,101372.56
2022-12-04T23:09:12.639Z,101362.84
2022-12-04T23:11:40.154Z,101364.94
2022-12-04T23:14:09.113Z,101367.81
2022-12-04T23:16:38.356Z,101368.41
2022-12-04T23:19:07.518Z,101361.66
2022-12-04T23:21:34.729Z,101363.25
2022-12-04T23:24:01.361Z,101360.81
2022-12-04T23:26:32.584Z,101358.34
2022-12-04T23:28:59.484Z,101351.94
2022-12-04T23:31:26.012Z,101357.97
2022-12-04T23:33:52.635Z,101353.81
2022-12-04T23:36:19.388Z,101346.97
2022-12-04T23:38:46.356Z,101361.19
2022-12-04T23:41:18.356Z,101348.66
2022-12-04T23:43:45.410Z,101352.19
2022-12-04T23:46:14.739Z,101354.47
2022-12-04T23:48:43.849Z,101353.63
2022-12-04T23:51:12.696Z,101360.81
2022-12-04T23:53:39.183Z,101365.34
2022-12-04T23:56:23.779Z,101357.66
2022-12-04T23:58:52.681Z,101364.09
